sensor_id;sensor_type;location;lat;lon;timestamp;P1;durP1;ratioP1;P2;durP2;ratioP2
11998;SDS011;40817;51.520;9.954;2023-04-24T00:02:13;1.95;;;1.23;;
11998;SDS011;40817;51.520;9.954;2023-04-24T00:04:40;1.63;;;0.80;;
11998;SDS011;40817;51.520;9.954;2023-04-24T00:07:09;1.08;;;0.75;;
11998;SDS011;40817;51.520;9.954;2023-04-24T00:09:38;1.25;;;0.60;;
11998;SDS011;40817;51.520;9.954;2023-04-24T00:12:05;2.70;;;0.98;;
11998;SDS011;40817;51.520;9.954;2023-04-24T00:14:33;2.03;;;0.77;;
11998;SDS011;40817;51.520;9.954;2023-04-24T00:17:02;1.25;;;0.73;;
11998;SDS011;40817;51.520;9.954;2023-04-24T00:19:30;1.33;;;0.75;;
11998;SDS011;40817;51.520;9.954;2023-04-24T00:21:58;2.17;;;0.80;;
11998;SDS011;40817;51.520;9.954;2023-04-24T00:24:25;2.20;;;0.70;;
11998;SDS011;40817;51.520;9.954;2023-04-24T00:26:53;1.38;;;0.60;;
11998;SDS011;40817;51.520;9.954;2023-04-24T00:29:20;1.02;;;0.57;;
11998;SDS011;40817;51.520;9.954;2023-04-24T00:31:48;1.52;;;0.75;;
11998;SDS011;40817;51.520;9.954;2023-04-24T00:34:17;3.00;;;0.80;;
11998;SDS011;40817;51.520;9.954;2023-04-24T00:36:45;2.20;;;1.00;;
11998;SDS011;40817;51.520;9.954;2023-04-24T00:39:14;1.30;;;0.65;;
11998;SDS011;40817;51.520;9.954;2023-04-24T00:41:42;1.58;;;1.05;;
11998;SDS011;40817;51.520;9.954;2023-04-24T00:44:10;1.63;;;0.60;;
11998;SDS011;40817;51.520;9.954;2023-04-24T00:46:38;1.30;;;0.50;;
11998;SDS011;40817;51.520;9.954;2023-04-24T00:49:06;1.63;;;1.08;;
11998;SDS011;40817;51.520;9.954;2023-04-24T00:51:35;1.25;;;0.50;;
11998;SDS011;40817;51.520;9.954;2023-04-24T00:54:02;3.90;;;0.70;;
11998;SDS011;40817;51.520;9.954;2023-04-24T00:56:30;2.72;;;0.73;;
11998;SDS011;40817;51.520;9.954;2023-04-24T00:58:58;2.30;;;0.68;;
11998;SDS011;40817;51.520;9.954;2023-04-24T01:01:26;1.08;;;0.50;;
11998;SDS011;40817;51.520;9.954;2023-04-24T01:03:53;2.47;;;0.55;;
11998;SDS011;40817;51.520;9.954;2023-04-24T01:06:22;1.27;;;0.63;;
11998;SDS011;40817;51.520;9.954;2023-04-24T01:08:55;0.65;;;0.50;;
11998;SDS011;40817;51.520;9.954;2023-04-24T01:11:23;0.77;;;0.50;;
11998;SDS011;40817;51.520;9.954;2023-04-24T01:13:52;1.13;;;0.65;;
11998;SDS011;40817;51.520;9.954;2023-04-24T01:16:20;1.73;;;0.60;;
11998;SDS011;40817;51.520;9.954;2023-04-24T01:18:47;2.50;;;0.57;;
11998;SDS011;40817;51.520;9.954;2023-04-24T01:21:15;1.25;;;0.63;;
11998;SDS011;40817;51.520;9.954;2023-04-24T01:23:45;1.52;;;0.70;;
11998;SDS011;40817;51.520;9.954;2023-04-24T01:26:14;0.65;;;0.47;;
11998;SDS011;40817;51.520;9.954;2023-04-24T01:28:45;1.45;;;0.80;;
11998;SDS011;40817;51.520;9.954;2023-04-24T01:31:14;2.33;;;0.73;;
11998;SDS011;40817;51.520;9.954;2023-04-24T01:33:42;1.67;;;0.68;;
11998;SDS011;40817;51.520;9.954;2023-04-24T01:36:09;1.17;;;0.55;;
11998;SDS011;40817;51.520;9.954;2023-04-24T01:38:38;2.47;;;0.98;;
11998;SDS011;40817;51.520;9.954;2023-04-24T01:41:07;1.00;;;0.57;;
11998;SDS011;40817;51.520;9.954;2023-04-24T01:43:34;1.13;;;0.63;;
11998;SDS011;40817;51.520;9.954;2023-04-24T01:46:02;3.40;;;0.82;;
11998;SDS011;40817;51.520;9.954;2023-04-24T01:48:30;0.57;;;0.57;;
11998;SDS011;40817;51.520;9.954;2023-04-24T01:51:18;1.02;;;0.60;;
11998;SDS011;40817;51.520;9.954;2023-04-24T01:53:45;2.05;;;0.60;;
11998;SDS011;40817;51.520;9.954;2023-04-24T01:56:14;1.30;;;0.60;;
11998;SDS011;40817;51.520;9.954;2023-04-24T01:58:42;1.52;;;0.50;;
11998;SDS011;40817;51.520;9.954;2023-04-24T02:01:14;1.48;;;0.68;;
11998;SDS011;40817;51.520;9.954;2023-04-24T02:03:44;1.63;;;0.73;;
11998;SDS011;40817;51.520;9.954;2023-04-24T02:06:12;0.98;;;0.60;;
11998;SDS011;40817;51.520;9.954;2023-04-24T02:08:39;3.03;;;0.63;;
11998;SDS011;40817;51.520;9.954;2023-04-24T02:11:08;0.75;;;0.57;;
11998;SDS011;40817;51.520;9.954;2023-04-24T02:13:37;0.70;;;0.50;;
11998;SDS011;40817;51.520;9.954;2023-04-24T02:16:05;1.60;;;0.60;;
11998;SDS011;40817;51.520;9.954;2023-04-24T02:18:32;1.95;;;0.73;;
11998;SDS011;40817;51.520;9.954;2023-04-24T02:21:00;1.02;;;0.55;;
11998;SDS011;40817;51.520;9.954;2023-04-24T02:23:27;0.70;;;0.40;;
11998;SDS011;40817;51.520;9.954;2023-04-24T02:25:55;2.13;;;0.60;;
11998;SDS011;40817;51.520;9.954;2023-04-24T02:28:23;2.22;;;0.77;;
11998;SDS011;40817;51.520;9.954;2023-04-24T02:30:52;1.85;;;0.70;;
11998;SDS011;40817;51.520;9.954;2023-04-24T02:33:19;0.80;;;0.50;;
11998;SDS011;40817;51.520;9.954;2023-04-24T02:35:47;1.70;;;0.60;;
11998;SDS011;40817;51.520;9.954;2023-04-24T02:38:15;2.38;;;0.60;;
11998;SDS011;40817;51.520;9.954;2023-04-24T02:40:52;1.20;;;0.63;;
11998;SDS011;40817;51.520;9.954;2023-04-24T02:43:20;1.52;;;0.70;;
11998;SDS011;40817;51.520;9.954;2023-04-24T02:45:48;0.77;;;0.60;;
11998;SDS011;40817;51.520;9.954;2023-04-24T02:48:17;1.35;;;0.50;;
11998;SDS011;40817;51.520;9.954;2023-04-24T02:50:46;0.85;;;0.40;;
11998;SDS011;40817;51.520;9.954;2023-04-24T02:53:14;1.75;;;0.73;;
11998;SDS011;40817;51.520;9.954;2023-04-24T02:55:41;1.65;;;0.63;;
11998;SDS011;40817;51.520;9.954;2023-04-24T02:58:09;2.47;;;0.60;;
11998;SDS011;40817;51.520;9.954;2023-04-24T03:00:38;2.58;;;0.70;;
11998;SDS011;40817;51.520;9.954;2023-04-24T03:03:06;1.73;;;0.75;;
11998;SDS011;40817;51.520;9.954;2023-04-24T03:05:54;1.70;;;0.50;;
11998;SDS011;40817;51.520;9.954;2023-04-24T03:08:42;3.63;;;1.00;;
11998;SDS011;40817;51.520;9.954;2023-04-24T03:11:10;1.60;;;0.65;;
11998;SDS011;40817;51.520;9.954;2023-04-24T03:13:37;1.13;;;0.60;;
11998;SDS011;40817;51.520;9.954;2023-04-24T03:16:05;2.10;;;0.75;;
11998;SDS011;40817;51.520;9.954;2023-04-24T03:18:33;3.28;;;0.80;;
11998;SDS011;40817;51.520;9.954;2023-04-24T03:21:02;1.50;;;0.77;;
11998;SDS011;40817;51.520;9.954;2023-04-24T03:23:30;1.77;;;1.00;;
11998;SDS011;40817;51.520;9.954;2023-04-24T03:25:58;2.13;;;1.00;;
11998;SDS011;40817;51.520;9.954;2023-04-24T03:28:26;2.00;;;0.90;;
11998;SDS011;40817;51.520;9.954;2023-04-24T03:30:54;2.30;;;1.10;;
11998;SDS011;40817;51.520;9.954;2023-04-24T03:33:21;1.92;;;1.10;;
11998;SDS011;40817;51.520;9.954;2023-04-24T03:35:49;2.78;;;1.05;;
11998;SDS011;40817;51.520;9.954;2023-04-24T03:38:19;3.47;;;1.73;;
11998;SDS011;40817;51.520;9.954;2023-04-24T03:40:47;1.90;;;1.20;;
11998;SDS011;40817;51.520;9.954;2023-04-24T03:43:15;3.80;;;1.15;;
11998;SDS011;40817;51.520;9.954;2023-04-24T03:45:43;3.28;;;1.15;;
11998;SDS011;40817;51.520;9.954;2023-04-24T03:48:10;2.75;;;0.90;;
11998;SDS011;40817;51.520;9.954;2023-04-24T03:50:38;3.47;;;1.33;;
11998;SDS011;40817;51.520;9.954;2023-04-24T03:53:06;2.30;;;1.00;;
11998;SDS011;40817;51.520;9.954;2023-04-24T03:55:35;1.50;;;0.85;;
11998;SDS011;40817;51.520;9.954;2023-04-24T03:58:03;1.98;;;1.08;;
11998;SDS011;40817;51.520;9.954;2023-04-24T04:00:31;2.15;;;1.27;;
11998;SDS011;40817;51.520;9.954;2023-04-24T04:03:00;3.67;;;1.20;;
11998;SDS011;40817;51.520;9.954;2023-04-24T04:05:28;2.67;;;1.30;;
11998;SDS011;40817;51.520;9.954;2023-04-24T04:07:56;2.00;;;1.17;;
11998;SDS011;40817;51.520;9.954;2023-04-24T04:10:24;3.13;;;1.15;;
11998;SDS011;40817;51.520;9.954;2023-04-24T04:12:53;1.83;;;1.20;;
11998;SDS011;40817;51.520;9.954;2023-04-24T04:15:20;3.45;;;1.27;;
11998;SDS011;40817;51.520;9.954;2023-04-24T04:17:48;3.20;;;1.30;;
11998;SDS011;40817;51.520;9.954;2023-04-24T04:20:16;2.20;;;1.20;;
11998;SDS011;40817;51.520;9.954;2023-04-24T04:22:44;2.63;;;1.20;;
11998;SDS011;40817;51.520;9.954;2023-04-24T04:25:11;2.35;;;1.20;;
11998;SDS011;40817;51.520;9.954;2023-04-24T04:27:39;3.70;;;1.52;;
11998;SDS011;40817;51.520;9.954;2023-04-24T04:30:09;2.95;;;1.20;;
11998;SDS011;40817;51.520;9.954;2023-04-24T04:32:37;1.65;;;1.15;;
11998;SDS011;40817;51.520;9.954;2023-04-24T04:35:05;2.10;;;1.00;;
11998;SDS011;40817;51.520;9.954;2023-04-24T04:37:33;4.78;;;1.35;;
11998;SDS011;40817;51.520;9.954;2023-04-24T04:40:01;2.90;;;1.05;;
11998;SDS011;40817;51.520;9.954;2023-04-24T04:42:32;3.13;;;1.17;;
11998;SDS011;40817;51.520;9.954;2023-04-24T04:45:00;4.32;;;1.25;;
11998;SDS011;40817;51.520;9.954;2023-04-24T04:47:30;2.70;;;1.00;;
11998;SDS011;40817;51.520;9.954;2023-04-24T04:49:58;3.80;;;1.30;;
11998;SDS011;40817;51.520;9.954;2023-04-24T04:52:26;1.98;;;0.98;;
11998;SDS011;40817;51.520;9.954;2023-04-24T04:54:53;2.58;;;0.85;;
11998;SDS011;40817;51.520;9.954;2023-04-24T04:57:21;2.38;;;1.17;;
11998;SDS011;40817;51.520;9.954;2023-04-24T04:59:50;2.15;;;1.20;;
11998;SDS011;40817;51.520;9.954;2023-04-24T05:02:18;2.70;;;1.10;;
11998;SDS011;40817;51.520;9.954;2023-04-24T05:04:47;3.50;;;1.00;;
11998;SDS011;40817;51.520;9.954;2023-04-24T05:07:15;2.33;;;1.20;;
11998;SDS011;40817;51.520;9.954;2023-04-24T05:09:43;1.58;;;0.98;;
11998;SDS011;40817;51.520;9.954;2023-04-24T05:12:11;3.08;;;0.85;;
11998;SDS011;40817;51.520;9.954;2023-04-24T05:14:39;1.88;;;1.05;;
11998;SDS011;40817;51.520;9.954;2023-04-24T05:17:06;2.22;;;1.10;;
11998;SDS011;40817;51.520;9.954;2023-04-24T05:19:34;2.28;;;0.90;;
11998;SDS011;40817;51.520;9.954;2023-04-24T05:22:05;2.75;;;1.00;;
11998;SDS011;40817;51.520;9.954;2023-04-24T05:24:33;3.63;;;1.17;;
11998;SDS011;40817;51.520;9.954;2023-04-24T05:27:00;2.35;;;0.90;;
11998;SDS011;40817;51.520;9.954;2023-04-24T05:29:30;2.05;;;0.80;;
11998;SDS011;40817;51.520;9.954;2023-04-24T05:31:59;2.15;;;0.80;;
11998;SDS011;40817;51.520;9.954;2023-04-24T05:34:27;1.98;;;0.60;;
11998;SDS011;40817;51.520;9.954;2023-04-24T05:36:54;2.42;;;0.80;;
11998;SDS011;40817;51.520;9.954;2023-04-24T05:39:23;4.05;;;0.60;;
11998;SDS011;40817;51.520;9.954;2023-04-24T05:41:52;1.85;;;0.80;;
11998;SDS011;40817;51.520;9.954;2023-04-24T05:44:20;1.48;;;0.75;;
11998;SDS011;40817;51.520;9.954;2023-04-24T05:46:48;1.13;;;0.57;;
11998;SDS011;40817;51.520;9.954;2023-04-24T05:49:16;2.90;;;0.80;;
11998;SDS011;40817;51.520;9.954;2023-04-24T05:51:43;0.90;;;0.60;;
11998;SDS011;40817;51.520;9.954;2023-04-24T05:54:11;2.10;;;0.80;;
11998;SDS011;40817;51.520;9.954;2023-04-24T05:56:40;2.35;;;0.80;;
11998;SDS011;40817;51.520;9.954;2023-04-24T05:59:08;1.13;;;0.70;;
11998;SDS011;40817;51.520;9.954;2023-04-24T06:01:36;0.70;;;0.57;;
11998;SDS011;40817;51.520;9.954;2023-04-24T06:04:04;2.13;;;0.80;;
11998;SDS011;40817;51.520;9.954;2023-04-24T06:06:32;1.50;;;0.70;;
11998;SDS011;40817;51.520;9.954;2023-04-24T06:08:59;1.25;;;0.70;;
11998;SDS011;40817;51.520;9.954;2023-04-24T06:11:28;1.60;;;0.50;;
11998;SDS011;40817;51.520;9.954;2023-04-24T06:13:57;2.30;;;1.00;;
11998;SDS011;40817;51.520;9.954;2023-04-24T06:16:25;0.90;;;0.60;;
11998;SDS011;40817;51.520;9.954;2023-04-24T06:18:53;1.42;;;0.73;;
11998;SDS011;40817;51.520;9.954;2023-04-24T06:21:20;2.35;;;0.80;;
11998;SDS011;40817;51.520;9.954;2023-04-24T06:23:48;3.83;;;0.80;;
11998;SDS011;40817;51.520;9.954;2023-04-24T06:26:16;1.30;;;0.80;;
11998;SDS011;40817;51.520;9.954;2023-04-24T06:28:44;2.15;;;1.08;;
11998;SDS011;40817;51.520;9.954;2023-04-24T06:31:13;1.98;;;0.75;;
11998;SDS011;40817;51.520;9.954;2023-04-24T06:33:41;1.85;;;0.90;;
11998;SDS011;40817;51.520;9.954;2023-04-24T06:36:09;3.72;;;1.02;;
11998;SDS011;40817;51.520;9.954;2023-04-24T06:38:38;3.00;;;1.00;;
11998;SDS011;40817;51.520;9.954;2023-04-24T06:41:06;1.75;;;1.00;;
11998;SDS011;40817;51.520;9.954;2023-04-24T06:43:34;3.13;;;1.05;;
11998;SDS011;40817;51.520;9.954;2023-04-24T06:46:02;1.88;;;1.17;;
11998;SDS011;40817;51.520;9.954;2023-04-24T06:48:31;3.30;;;1.17;;
11998;SDS011;40817;51.520;9.954;2023-04-24T06:50:58;2.53;;;1.50;;
11998;SDS011;40817;51.520;9.954;2023-04-24T06:53:26;3.50;;;1.27;;
11998;SDS011;40817;51.520;9.954;2023-04-24T06:55:54;4.07;;;1.30;;
11998;SDS011;40817;51.520;9.954;2023-04-24T06:58:23;1.75;;;1.25;;
11998;SDS011;40817;51.520;9.954;2023-04-24T07:00:51;3.35;;;1.30;;
11998;SDS011;40817;51.520;9.954;2023-04-24T07:03:19;4.13;;;1.88;;
11998;SDS011;40817;51.520;9.954;2023-04-24T07:05:48;3.45;;;2.20;;
11998;SDS011;40817;51.520;9.954;2023-04-24T07:08:16;3.22;;;1.75;;
11998;SDS011;40817;51.520;9.954;2023-04-24T07:10:45;3.70;;;2.30;;
11998;SDS011;40817;51.520;9.954;2023-04-24T07:13:13;4.13;;;2.53;;
11998;SDS011;40817;51.520;9.954;2023-04-24T07:15:41;5.65;;;2.85;;
11998;SDS011;40817;51.520;9.954;2023-04-24T07:18:09;3.58;;;2.60;;
11998;SDS011;40817;51.520;9.954;2023-04-24T07:20:36;3.75;;;2.47;;
11998;SDS011;40817;51.520;9.954;2023-04-24T07:23:06;3.75;;;2.47;;
11998;SDS011;40817;51.520;9.954;2023-04-24T07:25:33;3.58;;;2.30;;
11998;SDS011;40817;51.520;9.954;2023-04-24T07:28:01;3.38;;;2.38;;
11998;SDS011;40817;51.520;9.954;2023-04-24T07:30:30;3.35;;;2.47;;
11998;SDS011;40817;51.520;9.954;2023-04-24T07:32:58;3.80;;;2.40;;
11998;SDS011;40817;51.520;9.954;2023-04-24T07:35:26;3.90;;;2.55;;
11998;SDS011;40817;51.520;9.954;2023-04-24T07:37:54;6.80;;;2.60;;
11998;SDS011;40817;51.520;9.954;2023-04-24T07:40:23;3.13;;;2.58;;
11998;SDS011;40817;51.520;9.954;2023-04-24T07:42:50;4.90;;;2.40;;
11998;SDS011;40817;51.520;9.954;2023-04-24T07:45:18;3.05;;;2.42;;
11998;SDS011;40817;51.520;9.954;2023-04-24T07:47:45;3.03;;;2.20;;
11998;SDS011;40817;51.520;9.954;2023-04-24T07:50:13;3.25;;;2.20;;
11998;SDS011;40817;51.520;9.954;2023-04-24T07:52:41;2.38;;;1.98;;
11998;SDS011;40817;51.520;9.954;2023-04-24T07:55:08;3.25;;;2.25;;
11998;SDS011;40817;51.520;9.954;2023-04-24T07:57:37;4.00;;;2.30;;
11998;SDS011;40817;51.520;9.954;2023-04-24T08:00:05;2.75;;;1.90;;
11998;SDS011;40817;51.520;9.954;2023-04-24T08:02:35;2.88;;;2.20;;
11998;SDS011;40817;51.520;9.954;2023-04-24T08:05:03;2.80;;;2.10;;
11998;SDS011;40817;51.520;9.954;2023-04-24T08:07:32;2.55;;;1.90;;
11998;SDS011;40817;51.520;9.954;2023-04-24T08:10:00;3.30;;;1.98;;
11998;SDS011;40817;51.520;9.954;2023-04-24T08:12:28;3.10;;;2.00;;
11998;SDS011;40817;51.520;9.954;2023-04-24T08:14:57;3.75;;;2.00;;
11998;SDS011;40817;51.520;9.954;2023-04-24T08:17:25;3.78;;;2.00;;
11998;SDS011;40817;51.520;9.954;2023-04-24T08:19:52;5.13;;;1.98;;
11998;SDS011;40817;51.520;9.954;2023-04-24T08:22:26;3.80;;;2.00;;
11998;SDS011;40817;51.520;9.954;2023-04-24T08:24:54;3.17;;;2.00;;
11998;SDS011;40817;51.520;9.954;2023-04-24T08:27:22;2.45;;;1.70;;
11998;SDS011;40817;51.520;9.954;2023-04-24T08:29:49;5.00;;;1.92;;
11998;SDS011;40817;51.520;9.954;2023-04-24T08:32:18;2.72;;;2.05;;
11998;SDS011;40817;51.520;9.954;2023-04-24T08:34:46;5.28;;;2.72;;
11998;SDS011;40817;51.520;9.954;2023-04-24T08:37:13;4.80;;;2.42;;
11998;SDS011;40817;51.520;9.954;2023-04-24T08:39:41;4.25;;;2.22;;
11998;SDS011;40817;51.520;9.954;2023-04-24T08:42:09;3.80;;;2.38;;
11998;SDS011;40817;51.520;9.954;2023-04-24T08:44:39;2.47;;;1.70;;
11998;SDS011;40817;51.520;9.954;2023-04-24T08:47:07;4.35;;;2.13;;
11998;SDS011;40817;51.520;9.954;2023-04-24T08:49:37;3.00;;;2.00;;
11998;SDS011;40817;51.520;9.954;2023-04-24T08:52:05;3.58;;;1.90;;
11998;SDS011;40817;51.520;9.954;2023-04-24T08:54:33;4.28;;;2.08;;
11998;SDS011;40817;51.520;9.954;2023-04-24T08:57:02;2.28;;;1.80;;
11998;SDS011;40817;51.520;9.954;2023-04-24T08:59:30;3.10;;;1.90;;
11998;SDS011;40817;51.520;9.954;2023-04-24T09:01:59;3.78;;;2.03;;
11998;SDS011;40817;51.520;9.954;2023-04-24T09:04:28;3.35;;;2.00;;
11998;SDS011;40817;51.520;9.954;2023-04-24T09:06:58;4.25;;;1.92;;
11998;SDS011;40817;51.520;9.954;2023-04-24T09:09:27;2.70;;;2.08;;
11998;SDS011;40817;51.520;9.954;2023-04-24T09:11:59;4.43;;;2.38;;
11998;SDS011;40817;51.520;9.954;2023-04-24T09:14:27;2.50;;;1.80;;
11998;SDS011;40817;51.520;9.954;2023-04-24T09:16:57;3.58;;;2.00;;
11998;SDS011;40817;51.520;9.954;2023-04-24T09:19:24;3.22;;;2.47;;
11998;SDS011;40817;51.520;9.954;2023-04-24T09:21:52;14.20;;;2.33;;
11998;SDS011;40817;51.520;9.954;2023-04-24T09:24:21;4.88;;;2.55;;
11998;SDS011;40817;51.520;9.954;2023-04-24T09:26:55;4.30;;;2.20;;
11998;SDS011;40817;51.520;9.954;2023-04-24T09:29:26;3.15;;;2.22;;
11998;SDS011;40817;51.520;9.954;2023-04-24T09:31:54;4.47;;;2.40;;
11998;SDS011;40817;51.520;9.954;2023-04-24T09:34:22;3.67;;;2.67;;
11998;SDS011;40817;51.520;9.954;2023-04-24T09:36:52;3.22;;;2.00;;
11998;SDS011;40817;51.520;9.954;2023-04-24T09:39:22;3.80;;;2.20;;
11998;SDS011;40817;51.520;9.954;2023-04-24T09:41:50;3.05;;;2.38;;
11998;SDS011;40817;51.520;9.954;2023-04-24T09:44:20;4.53;;;2.45;;
11998;SDS011;40817;51.520;9.954;2023-04-24T09:46:50;3.95;;;2.67;;
11998;SDS011;40817;51.520;9.954;2023-04-24T09:49:21;3.90;;;2.67;;
11998;SDS011;40817;51.520;9.954;2023-04-24T09:51:51;2.50;;;2.03;;
11998;SDS011;40817;51.520;9.954;2023-04-24T09:54:29;2.75;;;2.10;;
11998;SDS011;40817;51.520;9.954;2023-04-24T09:56:57;4.47;;;2.60;;
11998;SDS011;40817;51.520;9.954;2023-04-24T09:59:25;4.30;;;2.35;;
11998;SDS011;40817;51.520;9.954;2023-04-24T10:01:52;4.78;;;2.20;;
11998;SDS011;40817;51.520;9.954;2023-04-24T10:04:21;3.95;;;2.47;;
11998;SDS011;40817;51.520;9.954;2023-04-24T10:06:50;4.88;;;2.20;;
11998;SDS011;40817;51.520;9.954;2023-04-24T10:09:20;5.07;;;2.28;;
11998;SDS011;40817;51.520;9.954;2023-04-24T10:11:52;4.68;;;2.20;;
11998;SDS011;40817;51.520;9.954;2023-04-24T10:14:21;3.53;;;2.03;;
11998;SDS011;40817;51.520;9.954;2023-04-24T10:16:53;4.63;;;2.50;;
11998;SDS011;40817;51.520;9.954;2023-04-24T10:19:23;3.55;;;2.08;;
11998;SDS011;40817;51.520;9.954;2023-04-24T10:21:53;3.05;;;2.35;;
11998;SDS011;40817;51.520;9.954;2023-04-24T10:24:21;3.28;;;2.13;;
11998;SDS011;40817;51.520;9.954;2023-04-24T10:26:48;2.88;;;2.00;;
11998;SDS011;40817;51.520;9.954;2023-04-24T10:29:18;7.22;;;2.35;;
11998;SDS011;40817;51.520;9.954;2023-04-24T10:31:46;2.70;;;1.90;;
11998;SDS011;40817;51.520;9.954;2023-04-24T10:34:14;4.28;;;2.30;;
11998;SDS011;40817;51.520;9.954;2023-04-24T10:36:46;6.13;;;2.00;;
11998;SDS011;40817;51.520;9.954;2023-04-24T10:39:19;3.00;;;2.05;;
11998;SDS011;40817;51.520;9.954;2023-04-24T10:41:48;3.55;;;2.40;;
11998;SDS011;40817;51.520;9.954;2023-04-24T10:44:16;4.22;;;2.10;;
11998;SDS011;40817;51.520;9.954;2023-04-24T10:46:52;5.63;;;1.90;;
11998;SDS011;40817;51.520;9.954;2023-04-24T10:49:27;4.43;;;1.80;;
11998;SDS011;40817;51.520;9.954;2023-04-24T10:51:59;2.78;;;1.80;;
11998;SDS011;40817;51.520;9.954;2023-04-24T10:54:33;1.80;;;1.40;;
11998;SDS011;40817;51.520;9.954;2023-04-24T11:00:14;2.88;;;1.20;;
11998;SDS011;40817;51.520;9.954;2023-04-24T11:02:46;3.75;;;1.52;;
11998;SDS011;40817;51.520;9.954;2023-04-24T11:05:15;3.63;;;1.30;;
11998;SDS011;40817;51.520;9.954;2023-04-24T11:10:45;3.35;;;1.17;;
11998;SDS011;40817;51.520;9.954;2023-04-24T11:13:14;2.72;;;1.20;;
11998;SDS011;40817;51.520;9.954;2023-04-24T11:15:44;1.88;;;0.90;;
11998;SDS011;40817;51.520;9.954;2023-04-24T11:18:36;1.98;;;1.33;;
11998;SDS011;40817;51.520;9.954;2023-04-24T11:21:09;2.30;;;1.25;;
11998;SDS011;40817;51.520;9.954;2023-04-24T11:23:38;1.80;;;1.20;;
11998;SDS011;40817;51.520;9.954;2023-04-24T11:26:10;2.80;;;1.63;;
11998;SDS011;40817;51.520;9.954;2023-04-24T11:28:48;1.85;;;1.30;;
11998;SDS011;40817;51.520;9.954;2023-04-24T11:31:37;2.10;;;1.13;;
11998;SDS011;40817;51.520;9.954;2023-04-24T11:34:09;2.60;;;1.58;;
11998;SDS011;40817;51.520;9.954;2023-04-24T11:36:39;3.75;;;1.70;;
11998;SDS011;40817;51.520;9.954;2023-04-24T11:39:09;4.88;;;2.00;;
11998;SDS011;40817;51.520;9.954;2023-04-24T11:41:38;2.22;;;1.50;;
11998;SDS011;40817;51.520;9.954;2023-04-24T11:44:06;2.15;;;1.52;;
11998;SDS011;40817;51.520;9.954;2023-04-24T11:46:37;4.30;;;1.52;;
11998;SDS011;40817;51.520;9.954;2023-04-24T11:49:09;4.50;;;1.80;;
11998;SDS011;40817;51.520;9.954;2023-04-24T11:51:38;3.85;;;1.77;;
11998;SDS011;40817;51.520;9.954;2023-04-24T11:54:07;2.80;;;1.45;;
11998;SDS011;40817;51.520;9.954;2023-04-24T11:56:36;2.53;;;1.40;;
11998;SDS011;40817;51.520;9.954;2023-04-24T11:59:04;1.75;;;1.25;;
11998;SDS011;40817;51.520;9.954;2023-04-24T12:01:43;2.10;;;1.30;;
11998;SDS011;40817;51.520;9.954;2023-04-24T12:04:11;2.30;;;1.42;;
11998;SDS011;40817;51.520;9.954;2023-04-24T12:06:40;2.22;;;1.10;;
11998;SDS011;40817;51.520;9.954;2023-04-24T12:09:27;2.53;;;1.13;;
11998;SDS011;40817;51.520;9.954;2023-04-24T12:11:55;4.50;;;1.20;;
11998;SDS011;40817;51.520;9.954;2023-04-24T12:14:23;0.98;;;0.70;;
11998;SDS011;40817;51.520;9.954;2023-04-24T12:16:52;1.08;;;0.63;;
11998;SDS011;40817;51.520;9.954;2023-04-24T12:19:20;0.55;;;0.40;;
11998;SDS011;40817;51.520;9.954;2023-04-24T12:22:01;0.50;;;0.35;;
11998;SDS011;40817;51.520;9.954;2023-04-24T12:24:32;0.35;;;0.30;;
11998;SDS011;40817;51.520;9.954;2023-04-24T12:27:00;0.30;;;0.25;;
11998;SDS011;40817;51.520;9.954;2023-04-24T12:29:27;0.30;;;0.30;;
11998;SDS011;40817;51.520;9.954;2023-04-24T12:31:56;0.43;;;0.30;;
11998;SDS011;40817;51.520;9.954;2023-04-24T12:34:25;0.30;;;0.30;;
11998;SDS011;40817;51.520;9.954;2023-04-24T12:36:52;1.00;;;0.20;;
11998;SDS011;40817;51.520;9.954;2023-04-24T12:39:20;0.30;;;0.20;;
11998;SDS011;40817;51.520;9.954;2023-04-24T12:41:50;0.20;;;0.20;;
11998;SDS011;40817;51.520;9.954;2023-04-24T12:44:30;0.40;;;0.28;;
11998;SDS011;40817;51.520;9.954;2023-04-24T12:47:01;0.20;;;0.20;;
11998;SDS011;40817;51.520;9.954;2023-04-24T12:49:29;0.30;;;0.30;;
11998;SDS011;40817;51.520;9.954;2023-04-24T12:51:57;0.90;;;0.38;;
11998;SDS011;40817;51.520;9.954;2023-04-24T12:54:25;1.13;;;0.40;;
11998;SDS011;40817;51.520;9.954;2023-04-24T12:56:58;0.68;;;0.28;;
11998;SDS011;40817;51.520;9.954;2023-04-24T12:59:27;0.50;;;0.38;;
11998;SDS011;40817;51.520;9.954;2023-04-24T13:01:55;0.50;;;0.30;;
11998;SDS011;40817;51.520;9.954;2023-04-24T13:04:24;0.55;;;0.40;;
11998;SDS011;40817;51.520;9.954;2023-04-24T13:06:51;0.20;;;0.20;;
11998;SDS011;40817;51.520;9.954;2023-04-24T13:09:19;0.40;;;0.38;;
11998;SDS011;40817;51.520;9.954;2023-04-24T13:11:46;0.80;;;0.40;;
11998;SDS011;40817;51.520;9.954;2023-04-24T13:14:14;0.85;;;0.40;;
11998;SDS011;40817;51.520;9.954;2023-04-24T13:16:41;0.32;;;0.30;;
11998;SDS011;40817;51.520;9.954;2023-04-24T13:19:09;0.30;;;0.30;;
11998;SDS011;40817;51.520;9.954;2023-04-24T13:21:38;0.43;;;0.30;;
11998;SDS011;40817;51.520;9.954;2023-04-24T13:24:05;0.47;;;0.38;;
11998;SDS011;40817;51.520;9.954;2023-04-24T13:26:45;0.20;;;0.20;;
11998;SDS011;40817;51.520;9.954;2023-04-24T13:29:13;0.28;;;0.28;;
11998;SDS011;40817;51.520;9.954;2023-04-24T13:31:40;0.20;;;0.20;;
11998;SDS011;40817;51.520;9.954;2023-04-24T13:34:08;0.50;;;0.35;;
11998;SDS011;40817;51.520;9.954;2023-04-24T13:36:37;0.50;;;0.32;;
11998;SDS011;40817;51.520;9.954;2023-04-24T13:39:05;0.55;;;0.30;;
11998;SDS011;40817;51.520;9.954;2023-04-24T13:41:33;1.30;;;0.30;;
11998;SDS011;40817;51.520;9.954;2023-04-24T13:44:01;0.43;;;0.30;;
11998;SDS011;40817;51.520;9.954;2023-04-24T13:46:29;0.43;;;0.35;;
11998;SDS011;40817;51.520;9.954;2023-04-24T13:48:57;0.60;;;0.40;;
11998;SDS011;40817;51.520;9.954;2023-04-24T13:51:25;0.40;;;0.40;;
11998;SDS011;40817;51.520;9.954;2023-04-24T13:53:54;0.45;;;0.45;;
11998;SDS011;40817;51.520;9.954;2023-04-24T13:56:22;0.82;;;0.60;;
11998;SDS011;40817;51.520;9.954;2023-04-24T13:58:50;0.65;;;0.40;;
11998;SDS011;40817;51.520;9.954;2023-04-24T14:01:19;0.68;;;0.50;;
11998;SDS011;40817;51.520;9.954;2023-04-24T14:03:49;0.52;;;0.45;;
11998;SDS011;40817;51.520;9.954;2023-04-24T14:06:17;0.70;;;0.40;;
11998;SDS011;40817;51.520;9.954;2023-04-24T14:08:45;0.70;;;0.50;;
11998;SDS011;40817;51.520;9.954;2023-04-24T14:11:14;0.57;;;0.50;;
11998;SDS011;40817;51.520;9.954;2023-04-24T14:13:42;0.60;;;0.40;;
11998;SDS011;40817;51.520;9.954;2023-04-24T14:16:11;1.02;;;0.40;;
11998;SDS011;40817;51.520;9.954;2023-04-24T14:18:39;0.95;;;0.50;;
11998;SDS011;40817;51.520;9.954;2023-04-24T14:21:06;1.63;;;0.60;;
11998;SDS011;40817;51.520;9.954;2023-04-24T14:23:34;0.95;;;0.50;;
11998;SDS011;40817;51.520;9.954;2023-04-24T14:26:02;1.17;;;0.50;;
11998;SDS011;40817;51.520;9.954;2023-04-24T14:28:32;1.88;;;0.60;;
11998;SDS011;40817;51.520;9.954;2023-04-24T14:30:59;1.45;;;1.15;;
11998;SDS011;40817;51.520;9.954;2023-04-24T14:33:27;1.20;;;0.85;;
11998;SDS011;40817;51.520;9.954;2023-04-24T14:35:54;1.90;;;1.10;;
11998;SDS011;40817;51.520;9.954;2023-04-24T14:38:22;1.13;;;0.80;;
11998;SDS011;40817;51.520;9.954;2023-04-24T14:40:49;1.08;;;0.85;;
11998;SDS011;40817;51.520;9.954;2023-04-24T14:43:17;2.88;;;1.15;;
11998;SDS011;40817;51.520;9.954;2023-04-24T14:45:46;1.50;;;0.98;;
11998;SDS011;40817;51.520;9.954;2023-04-24T14:48:14;1.90;;;1.10;;
11998;SDS011;40817;51.520;9.954;2023-04-24T14:50:42;3.83;;;1.73;;
11998;SDS011;40817;51.520;9.954;2023-04-24T14:53:10;2.25;;;1.50;;
11998;SDS011;40817;51.520;9.954;2023-04-24T14:55:38;2.55;;;1.63;;
11998;SDS011;40817;51.520;9.954;2023-04-24T14:58:05;4.18;;;1.95;;
11998;SDS011;40817;51.520;9.954;2023-04-24T15:00:33;2.95;;;2.00;;
11998;SDS011;40817;51.520;9.954;2023-04-24T15:03:02;3.67;;;2.10;;
11998;SDS011;40817;51.520;9.954;2023-04-24T15:05:29;2.95;;;1.92;;